createdAt,value
2024-05-09T00:00:15.486Z,8.13
2024-05-09T00:00:49.787Z,8.10
2024-05-09T00:01:21.473Z,8.43
2024-05-09T00:01:53.032Z,9.38
2024-05-09T00:02:24.708Z,8.73
2024-05-09T00:02:56.380Z,8.63
2024-05-09T00:03:28.038Z,8.23
2024-05-09T00:03:59.593Z,8.20
2024-05-09T00:04:31.175Z,8.60
2024-05-09T00:05:03.097Z,8.73
2024-05-09T00:05:34.894Z,8.05
2024-05-09T00:06:09.373Z,8.13
2024-05-09T00:06:41.009Z,8.52
2024-05-09T00:07:12.550Z,8.57
2024-05-09T00:07:44.178Z,9.07
2024-05-09T00:08:34.646Z,8.95
2024-05-09T00:09:06.247Z,8.38
2024-05-09T00:09:37.900Z,8.02
2024-05-09T00:10:15.148Z,8.52
2024-05-09T00:10:54.281Z,9.07
2024-05-09T00:11:25.900Z,7.78
2024-05-09T00:11:57.661Z,8.07
2024-05-09T00:12:29.329Z,8.35
2024-05-09T00:13:00.893Z,7.68
2024-05-09T00:13:32.433Z,8.68
2024-05-09T00:14:04.009Z,8.23
2024-05-09T00:14:35.587Z,8.73
2024-05-09T00:15:07.536Z,8.60
2024-05-09T00:15:39.190Z,7.85
2024-05-09T00:16:10.882Z,8.65
2024-05-09T00:16:42.523Z,8.02
2024-05-09T00:17:14.235Z,8.37
2024-05-09T00:17:45.884Z,8.68
2024-05-09T00:18:17.712Z,8.25
2024-05-09T00:18:49.519Z,9.05
2024-05-09T00:19:21.443Z,8.70
2024-05-09T00:19:53.016Z,8.75
2024-05-09T00:20:33.572Z,8.43
2024-05-09T00:21:10.139Z,8.68
2024-05-09T00:21:43.352Z,8.82
2024-05-09T00:22:14.861Z,8.60
2024-05-09T00:22:46.408Z,8.63
2024-05-09T00:23:18.084Z,8.43
2024-05-09T00:23:49.624Z,8.52
2024-05-09T00:24:21.163Z,8.35
2024-05-09T00:24:52.659Z,8.15
2024-05-09T00:25:24.153Z,7.80
2024-05-09T00:25:55.670Z,7.93
2024-05-09T00:26:27.369Z,9.20
2024-05-09T00:26:58.950Z,9.63
2024-05-09T00:27:30.486Z,9.00
2024-05-09T00:28:02.023Z,7.93
2024-05-09T00:28:33.540Z,8.52
2024-05-09T00:29:05.145Z,8.38
2024-05-09T00:29:36.703Z,8.80
2024-05-09T00:30:14.280Z,9.20
2024-05-09T00:30:49.029Z,8.70
2024-05-09T00:31:20.535Z,7.93
2024-05-09T00:31:52.136Z,8.32
2024-05-09T00:32:42.471Z,8.88
2024-05-09T00:33:14.232Z,7.65
2024-05-09T00:33:46.057Z,8.43
2024-05-09T00:34:17.853Z,7.75
2024-05-09T00:34:49.447Z,8.73
2024-05-09T00:35:21.238Z,8.10
2024-05-09T00:35:52.855Z,8.82
2024-05-09T00:36:24.386Z,8.02
2024-05-09T00:36:55.889Z,9.63
2024-05-09T00:38:35.172Z,8.20
2024-05-09T00:39:06.743Z,8.23
2024-05-09T00:39:38.318Z,8.40
2024-05-09T00:40:18.282Z,8.57
2024-05-09T00:40:54.364Z,8.35
2024-05-09T00:41:25.970Z,8.52
2024-05-09T00:42:16.595Z,9.18
2024-05-09T00:42:48.114Z,7.82
2024-05-09T00:43:19.670Z,8.10
2024-05-09T00:43:51.208Z,9.15
2024-05-09T00:44:22.858Z,8.40
2024-05-09T00:44:54.444Z,8.13
2024-05-09T00:45:25.947Z,8.50
2024-05-09T00:45:57.564Z,9.35
2024-05-09T00:46:48.264Z,8.48
2024-05-09T00:47:19.982Z,8.25
2024-05-09T00:47:51.974Z,8.30
2024-05-09T00:48:23.800Z,7.63
2024-05-09T00:48:55.837Z,9.07
2024-05-09T00:49:28.353Z,9.02
2024-05-09T00:50:02.458Z,9.25
2024-05-09T00:50:54.349Z,8.68
2024-05-09T00:51:26.574Z,7.80
2024-05-09T00:51:58.861Z,8.50
2024-05-09T00:52:30.781Z,8.20
2024-05-09T00:53:02.564Z,8.70
2024-05-09T00:53:34.357Z,8.32
2024-05-09T00:54:06.583Z,7.90
2024-05-09T00:54:38.231Z,8.02
2024-05-09T00:55:09.749Z,8.38
2024-05-09T00:55:42.297Z,9.65
2024-05-09T00:56:14.810Z,8.48
2024-05-09T00:56:47.460Z,8.50
2024-05-09T00:57:18.993Z,9.05
2024-05-09T00:57:51.462Z,9.35
2024-05-09T00:59:32.179Z,8.43
2024-05-09T01:00:06.061Z,8.38
2024-05-09T01:00:41.353Z,8.98
2024-05-09T01:01:13.829Z,9.00
2024-05-09T01:01:46.341Z,9.35
2024-05-09T01:02:18.143Z,8.75
2024-05-09T01:03:09.742Z,9.07
2024-05-09T01:03:43.268Z,8.30
2024-05-09T01:04:33.896Z,9.35
2024-05-09T01:05:05.978Z,8.25
2024-05-09T01:05:38.950Z,9.18
2024-05-09T01:06:10.736Z,7.95
2024-05-09T01:06:42.860Z,8.35
2024-05-09T01:07:14.448Z,10.38
2024-05-09T01:07:46.055Z,8.55
2024-05-09T01:08:18.180Z,9.50
2024-05-09T01:08:49.911Z,9.33
2024-05-09T01:09:21.425Z,9.18
2024-05-09T01:09:53.060Z,8.80
2024-05-09T01:10:32.202Z,9.85
2024-05-09T01:11:06.498Z,9.80
2024-05-09T01:11:39.112Z,9.48
2024-05-09T01:12:10.897Z,9.85
2024-05-09T01:12:42.468Z,9.27
2024-05-09T01:13:14.256Z,9.70
2024-05-09T01:13:46.248Z,9.05
2024-05-09T01:14:18.166Z,9.77
2024-05-09T01:14:49.808Z,8.68
2024-05-09T01:15:40.087Z,9.38
2024-05-09T01:16:13.158Z,9.35
2024-05-09T01:16:44.913Z,9.45
2024-05-09T01:17:17.162Z,9.43
2024-05-09T01:17:48.983Z,9.32
2024-05-09T01:18:39.884Z,10.25
2024-05-09T01:19:19.904Z,9.40
2024-05-09T01:19:51.531Z,8.95
2024-05-09T01:20:32.002Z,8.17
2024-05-09T01:21:11.670Z,9.02
2024-05-09T01:21:43.787Z,9.02
2024-05-09T01:22:15.368Z,9.75
2024-05-09T01:22:47.877Z,8.80
2024-05-09T01:23:19.669Z,8.88
2024-05-09T01:23:51.252Z,9.50
2024-05-09T01:24:22.780Z,9.63
2024-05-09T01:24:54.325Z,10.02
2024-05-09T01:26:14.659Z,9.23
2024-05-09T01:26:46.212Z,9.20
2024-05-09T01:27:18.157Z,8.95
2024-05-09T01:27:49.642Z,8.88
2024-05-09T01:28:21.217Z,9.82
2024-05-09T01:28:52.750Z,9.25
2024-05-09T01:29:24.445Z,10.45
2024-05-09T01:29:56.026Z,10.07
2024-05-09T01:30:34.090Z,9.52
2024-05-09T01:31:07.920Z,10.05
2024-05-09T01:31:39.490Z,9.47
2024-05-09T01:32:11.241Z,9.02
2024-05-09T01:32:43.369Z,8.95
2024-05-09T01:33:33.807Z,9.77
2024-05-09T01:34:06.297Z,9.77
2024-05-09T01:34:37.852Z,9.50
2024-05-09T01:35:09.464Z,9.75
2024-05-09T01:35:42.558Z,9.63
2024-05-09T01:36:14.652Z,10.65
2024-05-09T01:36:46.125Z,11.63
2024-05-09T01:37:17.635Z,10.23
2024-05-09T01:37:49.930Z,10.32
2024-05-09T01:38:21.482Z,11.23
2024-05-09T01:38:53.014Z,10.57
2024-05-09T01:39:24.533Z,11.40
2024-05-09T01:40:18.638Z,10.60
2024-05-09T01:40:56.405Z,9.85
2024-05-09T01:41:28.080Z,9.98
2024-05-09T01:41:59.663Z,9.85
2024-05-09T01:42:31.205Z,10.38
2024-05-09T01:43:02.731Z,9.53
2024-05-09T01:43:34.288Z,9.63
2024-05-09T01:44:05.933Z,9.48
2024-05-09T01:44:37.578Z,10.02
2024-05-09T01:45:09.763Z,9.40
2024-05-09T01:45:41.749Z,9.63
2024-05-09T01:46:15.294Z,8.93
2024-05-09T01:46:46.866Z,9.93
2024-05-09T01:47:37.283Z,9.10
2024-05-09T01:48:10.450Z,9.00
2024-05-09T01:48:43.593Z,8.83
2024-05-09T01:50:06.797Z,9.15
2024-05-09T01:50:42.505Z,9.38
2024-05-09T01:51:14.934Z,8.95
2024-05-09T01:51:46.452Z,8.90
2024-05-09T01:52:17.950Z,10.50
2024-05-09T01:52:49.470Z,9.20
2024-05-09T01:53:21.129Z,8.45
2024-05-09T01:53:54.578Z,9.18
2024-05-09T01:54:26.076Z,9.20
2024-05-09T01:54:57.566Z,10.18
2024-05-09T01:56:18.163Z,9.23
2024-05-09T01:56:49.754Z,8.98
2024-05-09T01:57:39.998Z,9.15
2024-05-09T01:58:30.089Z,9.43
2024-05-09T01:59:01.994Z,10.43
2024-05-09T01:59:33.580Z,9.73
2024-05-09T02:00:07.644Z,8.77
2024-05-09T02:00:42.412Z,9.37
2024-05-09T02:01:14.932Z,8.48
2024-05-09T02:01:56.514Z,9.45
2024-05-09T02:02:29.473Z,9.77
2024-05-09T02:03:01.575Z,10.07
2024-05-09T02:03:33.350Z,9.68
2024-05-09T02:04:23.595Z,9.77
2024-05-09T02:04:55.367Z,9.98
2024-05-09T02:05:27.080Z,9.20
2024-05-09T02:05:58.631Z,8.93
2024-05-09T02:06:30.141Z,8.40
2024-05-09T02:07:01.694Z,9.40
2024-05-09T02:07:35.125Z,9.75
2024-05-09T02:08:07.065Z,10.27
2024-05-09T02:08:38.695Z,9.77
2024-05-09T02:09:10.260Z,9.82
2024-05-09T02:09:57.110Z,9.27
2024-05-09T02:10:32.583Z,9.98
2024-05-09T02:11:05.084Z,9.65
2024-05-09T02:11:47.245Z,9.40
2024-05-09T02:12:31.410Z,9.93
2024-05-09T02:13:03.013Z,8.05
2024-05-09T02:13:34.505Z,8.55
2024-05-09T02:14:06.931Z,9.88
2024-05-09T02:14:38.536Z,9.60
2024-05-09T02:15:10.093Z,9.30
2024-05-09T02:16:00.273Z,9.55
2024-05-09T02:16:31.752Z,8.95
2024-05-09T02:17:03.434Z,10.38
2024-05-09T02:17:35.064Z,9.40
2024-05-09T02:18:08.162Z,9.43
2024-05-09T02:18:40.150Z,10.73
2024-05-09T02:19:12.065Z,8.93
2024-05-09T02:19:43.649Z,10.38
2024-05-09T02:20:22.600Z,9.90
2024-05-09T02:21:01.253Z,9.40
2024-05-09T02:21:34.224Z,9.35
2024-05-09T02:22:05.745Z,9.30
2024-05-09T02:22:37.228Z,9.68
2024-05-09T02:23:09.546Z,9.27
2024-05-09T02:23:41.324Z,9.70
2024-05-09T02:24:12.841Z,9.50
2024-05-09T02:24:44.337Z,9.18
2024-05-09T02:25:15.817Z,10.25
2024-05-09T02:25:47.364Z,10.38
2024-05-09T02:26:18.928Z,9.70
2024-05-09T02:26:51.283Z,9.43
2024-05-09T02:27:22.768Z,9.82
2024-05-09T02:27:54.293Z,9.52
2024-05-09T02:28:25.850Z,9.25
2024-05-09T02:28:57.353Z,10.03
2024-05-09T02:29:28.934Z,9.10
2024-05-09T02:30:00.471Z,9.43
2024-05-09T02:30:39.317Z,10.15
2024-05-09T02:31:13.478Z,8.65
2024-05-09T02:31:48.733Z,8.75
2024-05-09T02:32:20.380Z,10.32
2024-05-09T02:32:52.222Z,9.10
2024-05-09T02:33:24.110Z,9.50
2024-05-09T02:33:55.913Z,8.63
2024-05-09T02:35:35.380Z,9.13
2024-05-09T02:36:07.717Z,8.70
2024-05-09T02:36:39.234Z,8.68
2024-05-09T02:37:10.730Z,9.80
2024-05-09T02:38:01.092Z,9.15
2024-05-09T02:38:32.821Z,8.57
2024-05-09T02:39:04.416Z,9.43
2024-05-09T02:39:35.896Z,9.82
2024-05-09T02:40:35.050Z,9.07
2024-05-09T02:41:09.426Z,8.23
2024-05-09T02:41:40.985Z,8.93
2024-05-09T02:42:12.512Z,9.45
2024-05-09T02:42:44.000Z,9.02
2024-05-09T02:43:15.669Z,9.30
2024-05-09T02:43:47.226Z,9.20
2024-05-09T02:44:18.791Z,9.35
2024-05-09T02:44:50.357Z,8.48
2024-05-09T02:45:21.943Z,9.73
2024-05-09T02:45:53.419Z,9.15
2024-05-09T02:46:24.926Z,9.47
2024-05-09T02:46:56.488Z,9.65
2024-05-09T02:47:28.141Z,8.55
2024-05-09T02:48:00.213Z,9.57
2024-05-09T02:48:32.206Z,9.75
2024-05-09T02:49:03.964Z,8.55
2024-05-09T02:49:35.680Z,9.05
2024-05-09T02:50:33.920Z,9.90
2024-05-09T02:51:09.963Z,9.25
2024-05-09T02:52:00.129Z,9.43
2024-05-09T02:52:50.200Z,8.43
2024-05-09T02:53:22.409Z,9.27
2024-05-09T02:53:53.929Z,8.60
2024-05-09T02:54:25.508Z,9.30
2024-05-09T02:54:57.103Z,10.02
2024-05-09T02:55:28.608Z,9.15
2024-05-09T02:56:49.215Z,9.73
2024-05-09T02:57:20.706Z,9.05
2024-05-09T02:57:52.184Z,9.07
2024-05-09T02:58:23.680Z,10.37
2024-05-09T02:58:56.742Z,9.63
2024-05-09T03:00:22.826Z,9.65
2024-05-09T03:00:58.133Z,9.93
2024-05-09T03:01:29.712Z,9.07
2024-05-09T03:02:01.420Z,9.45
2024-05-09T03:02:33.087Z,9.38
2024-05-09T03:03:05.936Z,10.70
2024-05-09T03:03:37.847Z,10.15
2024-05-09T03:04:09.688Z,9.77
2024-05-09T03:04:44.893Z,10.15
2024-05-09T03:05:16.552Z,9.70
2024-05-09T03:05:48.164Z,9.73
2024-05-09T03:07:08.981Z,9.27
2024-05-09T03:07:43.243Z,10.05
2024-05-09T03:08:14.926Z,9.38
2024-05-09T03:08:48.016Z,10.65
2024-05-09T03:09:38.216Z,9.45
2024-05-09T03:10:18.244Z,9.17
2024-05-09T03:10:53.998Z,9.43
2024-05-09T03:11:26.127Z,8.77
2024-05-09T03:11:57.793Z,9.68
2024-05-09T03:12:29.428Z,8.85
2024-05-09T03:13:05.634Z,9.18
2024-05-09T03:13:40.092Z,9.10
2024-05-09T03:14:16.396Z,9.93
2024-05-09T03:15:06.716Z,10.13
2024-05-09T03:15:38.230Z,8.98
2024-05-09T03:16:09.734Z,9.47
2024-05-09T03:16:41.206Z,9.10
2024-05-09T03:18:01.990Z,9.85
2024-05-09T03:18:52.650Z,9.52
2024-05-09T03:19:24.291Z,9.85
2024-05-09T03:19:55.887Z,9.35
2024-05-09T03:20:33.108Z,9.27
2024-05-09T03:21:07.220Z,9.93
2024-05-09T03:21:42.433Z,9.65
2024-05-09T03:22:13.934Z,9.73
2024-05-09T03:22:45.437Z,10.27
2024-05-09T03:23:17.006Z,10.15
2024-05-09T03:23:48.788Z,10.07
2024-05-09T03:24:20.338Z,9.60
2024-05-09T03:24:51.886Z,10.27
2024-05-09T03:25:23.463Z,9.82
2024-05-09T03:25:55.064Z,9.77
2024-05-09T03:26:26.827Z,10.13
2024-05-09T03:26:58.379Z,9.88
2024-05-09T03:27:29.906Z,9.97
2024-05-09T03:28:01.657Z,9.70
2024-05-09T03:28:33.214Z,9.57
2024-05-09T03:29:04.834Z,9.93
2024-05-09T03:29:36.837Z,9.38
2024-05-09T03:30:09.858Z,9.68
2024-05-09T03:31:49.565Z,9.48
2024-05-09T03:32:21.427Z,9.10
2024-05-09T03:32:53.265Z,9.48
2024-05-09T03:33:25.117Z,10.37
2024-05-09T03:33:56.906Z,10.48
2024-05-09T03:34:28.507Z,10.23
2024-05-09T03:35:00.055Z,9.75
2024-05-09T03:35:31.652Z,10.18
2024-05-09T03:36:06.808Z,9.90
2024-05-09T03:37:01.128Z,10.73
2024-05-09T03:37:32.949Z,9.43
2024-05-09T03:38:04.777Z,10.00
2024-05-09T03:38:42.070Z,8.93
2024-05-09T03:39:13.746Z,8.93
2024-05-09T03:39:45.364Z,10.30
2024-05-09T03:40:23.384Z,10.50
2024-05-09T03:41:16.257Z,9.75
2024-05-09T03:42:55.714Z,8.55
2024-05-09T03:43:27.214Z,9.23
2024-05-09T03:43:58.771Z,10.30
2024-05-09T03:44:30.467Z,10.02
2024-05-09T03:45:02.090Z,10.52
2024-05-09T03:45:33.620Z,11.07
2024-05-09T03:46:05.195Z,10.63
2024-05-09T03:46:40.171Z,10.13
2024-05-09T03:47:11.732Z,10.13
2024-05-09T03:47:43.659Z,10.95
2024-05-09T03:48:15.693Z,10.52
2024-05-09T03:48:47.372Z,10.13
2024-05-09T03:49:19.118Z,10.77
2024-05-09T03:49:50.705Z,10.93
2024-05-09T03:50:29.694Z,10.68
2024-05-09T03:51:05.638Z,8.67
2024-05-09T03:51:37.278Z,9.60
2024-05-09T03:52:09.597Z,10.15
2024-05-09T03:52:59.726Z,10.05
2024-05-09T03:53:31.310Z,9.40
2024-05-09T03:54:02.902Z,9.40
2024-05-09T03:54:35.028Z,9.50
2024-05-09T03:55:06.837Z,9.70
2024-05-09T03:55:38.950Z,10.00
2024-05-09T03:56:10.528Z,9.60
2024-05-09T03:56:42.176Z,9.83
2024-05-09T03:57:13.741Z,9.20
2024-05-09T03:57:45.234Z,9.52
2024-05-09T03:58:16.751Z,10.40
2024-05-09T03:59:06.787Z,9.65
2024-05-09T03:59:38.352Z,9.30
2024-05-09T04:00:17.647Z,9.80
2024-05-09T04:00:54.264Z,9.70
2024-05-09T04:01:32.578Z,9.60
2024-05-09T04:02:23.276Z,8.82
2024-05-09T04:02:55.200Z,8.90
2024-05-09T04:03:27.061Z,9.30
2024-05-09T04:03:58.851Z,9.10
2024-05-09T04:04:30.459Z,9.18
2024-05-09T04:05:02.027Z,9.48
2024-05-09T04:05:33.706Z,9.18
2024-05-09T04:06:24.654Z,9.32
2024-05-09T04:06:56.210Z,8.80
2024-05-09T04:07:27.789Z,8.90
2024-05-09T04:07:59.342Z,9.68
2024-05-09T04:08:49.558Z,9.30
2024-05-09T04:09:21.058Z,9.70
2024-05-09T04:09:52.609Z,9.23
2024-05-09T04:10:30.935Z,9.65
2024-05-09T04:11:05.246Z,9.35
2024-05-09T04:12:25.803Z,9.68
2024-05-09T04:12:57.320Z,9.85
2024-05-09T04:13:28.806Z,9.27
2024-05-09T04:14:00.340Z,9.60
2024-05-09T04:14:31.987Z,9.70
2024-05-09T04:15:03.835Z,9.60
2024-05-09T04:15:35.381Z,9.32
2024-05-09T04:16:09.593Z,9.40
2024-05-09T04:16:41.082Z,9.88
2024-05-09T04:17:12.655Z,9.25
2024-05-09T04:17:51.083Z,8.88
2024-05-09T04:18:22.836Z,9.32
2024-05-09T04:18:54.452Z,9.10
2024-05-09T04:19:26.200Z,9.38
2024-05-09T04:20:28.686Z,9.07
2024-05-09T04:21:07.992Z,9.25
2024-05-09T04:22:28.301Z,9.38
2024-05-09T04:22:59.855Z,9.23
2024-05-09T04:23:49.897Z,9.10
2024-05-09T04:24:40.147Z,9.32
2024-05-09T04:25:11.676Z,9.50
2024-05-09T04:25:45.136Z,9.50
2024-05-09T04:26:17.238Z,9.02
2024-05-09T04:26:48.802Z,9.07
2024-05-09T04:27:20.292Z,9.45
2024-05-09T04:27:55.658Z,9.43
2024-05-09T04:28:27.232Z,8.57
2024-05-09T04:28:58.726Z,10.63
2024-05-09T04:29:30.592Z,9.93
2024-05-09T04:30:02.269Z,9.32
2024-05-09T04:30:38.444Z,10.43
2024-05-09T04:31:12.362Z,9.68
2024-05-09T04:31:43.941Z,9.73
2024-05-09T04:32:15.763Z,9.77
2024-05-09T04:32:47.431Z,8.77
2024-05-09T04:33:20.844Z,10.02
2024-05-09T04:33:52.750Z,9.77
2024-05-09T04:34:24.478Z,9.68
2024-05-09T04:34:56.127Z,9.50
2024-05-09T04:35:46.435Z,9.57
2024-05-09T04:36:17.955Z,9.80
2024-05-09T04:36:49.415Z,9.13
2024-05-09T04:37:20.921Z,8.82
2024-05-09T04:37:52.527Z,8.93
2024-05-09T04:38:24.196Z,10.50
2024-05-09T04:38:55.744Z,9.55
2024-05-09T04:39:27.516Z,9.50
2024-05-09T04:39:59.053Z,9.27
2024-05-09T04:40:34.400Z,8.98
2024-05-09T04:41:08.762Z,9.52
2024-05-09T04:41:40.355Z,9.30
2024-05-09T04:42:11.889Z,8.75
2024-05-09T04:43:02.158Z,9.60
2024-05-09T04:43:35.199Z,9.53
2024-05-09T04:44:06.710Z,9.10
2024-05-09T04:44:38.297Z,9.07
2024-05-09T04:45:47.167Z,9.50
2024-05-09T04:46:18.733Z,9.10
2024-05-09T04:46:50.342Z,8.93
2024-05-09T04:47:21.952Z,8.45
2024-05-09T04:48:12.185Z,9.40
2024-05-09T04:49:02.724Z,9.13
2024-05-09T04:49:53.057Z,8.55
2024-05-09T04:50:32.750Z,9.07
2024-05-09T04:51:08.299Z,9.13
2024-05-09T04:51:41.557Z,9.35
2024-05-09T04:52:13.046Z,9.45
2024-05-09T04:52:44.628Z,9.07
2024-05-09T04:53:16.449Z,9.23
2024-05-09T04:53:48.147Z,9.32
2024-05-09T04:54:29.997Z,10.23
2024-05-09T04:55:07.491Z,8.57
2024-05-09T04:55:40.456Z,9.02
2024-05-09T04:56:12.395Z,9.13
2024-05-09T04:56:43.975Z,8.82
2024-05-09T04:57:15.477Z,9.68
2024-05-09T04:57:46.975Z,10.82
2024-05-09T04:58:18.471Z,9.73
2024-05-09T04:58:50.051Z,10.02
2024-05-09T04:59:22.051Z,9.77
2024-05-09T04:59:53.581Z,10.45
2024-05-09T05:00:32.585Z,9.65
2024-05-09T05:01:08.257Z,9.32
2024-05-09T05:01:39.839Z,9.93
2024-05-09T05:03:49.679Z,10.52
2024-05-09T05:04:21.435Z,10.38
2024-05-09T05:04:53.236Z,9.77
2024-05-09T05:05:24.868Z,9.90
2024-05-09T05:05:56.463Z,10.88
2024-05-09T05:06:28.051Z,9.98
2024-05-09T05:07:02.644Z,10.52
2024-05-09T05:07:53.206Z,10.60
2024-05-09T05:08:24.804Z,10.15
2024-05-09T05:08:56.456Z,9.63
2024-05-09T05:09:27.993Z,10.73
2024-05-09T05:10:25.280Z,9.82
2024-05-09T05:11:00.978Z,9.68
2024-05-09T05:11:32.572Z,9.27
2024-05-09T05:12:24.466Z,10.95
2024-05-09T05:13:14.642Z,11.32
2024-05-09T05:13:46.200Z,9.40
2024-05-09T05:14:17.884Z,10.27
2024-05-09T05:14:49.399Z,11.80
2024-05-09T05:15:20.931Z,10.98
2024-05-09T05:15:55.897Z,12.32
2024-05-09T05:16:28.163Z,11.45
2024-05-09T05:16:59.672Z,10.98
2024-05-09T05:17:31.372Z,10.68
2024-05-09T05:18:03.201Z,11.07
2024-05-09T05:18:34.972Z,11.48
2024-05-09T05:19:10.207Z,11.57
2024-05-09T05:19:43.078Z,11.33
2024-05-09T05:20:17.985Z,11.77
2024-05-09T05:20:56.471Z,11.25
2024-05-09T05:21:28.445Z,11.65
2024-05-09T05:22:00.132Z,12.48
2024-05-09T05:22:31.618Z,12.05
2024-05-09T05:23:03.190Z,12.07
2024-05-09T05:23:35.670Z,12.88
2024-05-09T05:24:07.270Z,12.32
2024-05-09T05:24:38.779Z,12.85
2024-05-09T05:25:10.267Z,11.93
2024-05-09T05:26:00.771Z,12.65
2024-05-09T05:26:34.085Z,12.55
2024-05-09T05:27:43.306Z,13.38
2024-05-09T05:28:18.368Z,13.43
2024-05-09T05:28:50.881Z,12.90
2024-05-09T05:29:22.474Z,12.55
2024-05-09T05:31:01.644Z,11.98
2024-05-09T05:31:51.992Z,13.45
2024-05-09T05:32:23.710Z,13.63
2024-05-09T05:32:55.692Z,13.50
2024-05-09T05:33:48.159Z,13.68
2024-05-09T05:34:19.810Z,14.80
2024-05-09T05:34:51.350Z,15.35
2024-05-09T05:35:22.912Z,14.48
2024-05-09T05:35:54.414Z,13.93
2024-05-09T05:36:25.881Z,14.05
2024-05-09T05:36:57.407Z,15.00
2024-05-09T05:37:47.608Z,14.80
2024-05-09T05:38:21.260Z,14.00
2024-05-09T05:38:54.357Z,14.50
2024-05-09T05:39:25.912Z,13.70
2024-05-09T05:39:58.220Z,14.05
2024-05-09T05:40:36.521Z,15.60
2024-05-09T05:41:09.981Z,15.30
2024-05-09T05:41:41.572Z,14.48
2024-05-09T05:42:13.172Z,15.55
2024-05-09T05:42:44.660Z,15.57
2024-05-09T05:43:17.842Z,14.13
2024-05-09T05:43:49.494Z,14.70
2024-05-09T05:44:21.054Z,15.32
2024-05-09T05:44:52.613Z,15.07
2024-05-09T05:45:24.190Z,15.80
2024-05-09T05:45:55.660Z,17.00
2024-05-09T05:46:27.194Z,16.95
2024-05-09T05:46:58.731Z,16.83
2024-05-09T05:47:30.392Z,16.90
2024-05-09T05:48:05.771Z,16.85
2024-05-09T05:48:38.112Z,18.88
2024-05-09T05:49:09.958Z,17.03
2024-05-09T05:49:41.645Z,16.55
2024-05-09T05:50:23.714Z,17.52
2024-05-09T05:51:18.224Z,16.35
2024-05-09T05:51:49.748Z,17.80
2024-05-09T05:52:21.235Z,18.33
2024-05-09T05:52:52.758Z,17.77
2024-05-09T05:53:24.339Z,18.80
2024-05-09T05:54:14.604Z,19.02
2024-05-09T05:54:48.500Z,18.02
2024-05-09T05:55:20.081Z,18.03
2024-05-09T05:55:51.670Z,17.05
2024-05-09T05:56:23.292Z,18.52
2024-05-09T05:56:54.781Z,18.90
2024-05-09T05:57:26.285Z,18.80
2024-05-09T05:57:58.191Z,18.95
2024-05-09T05:58:29.678Z,18.70
2024-05-09T05:59:01.263Z,17.35
2024-05-09T05:59:33.026Z,17.45
2024-05-09T06:00:09.427Z,18.30
2024-05-09T06:00:42.413Z,18.93
2024-05-09T06:01:14.522Z,21.42
2024-05-09T06:01:46.202Z,17.60
2024-05-09T06:02:17.867Z,18.58
2024-05-09T06:02:49.646Z,18.23
2024-05-09T06:03:21.290Z,18.58
2024-05-09T06:03:52.932Z,18.85
2024-05-09T06:04:24.512Z,17.73
2024-05-09T06:04:56.174Z,19.42
2024-05-09T06:05:28.573Z,18.05
2024-05-09T06:06:02.967Z,18.03
2024-05-09T06:06:34.565Z,17.70
2024-05-09T06:07:06.085Z,19.33
2024-05-09T06:07:37.640Z,19.90
2024-05-09T06:08:09.506Z,20.33
2024-05-09T06:08:41.139Z,20.70
2024-05-09T06:09:12.748Z,18.75
2024-05-09T06:09:46.064Z,19.95
2024-05-09T06:10:25.372Z,19.98
2024-05-09T06:10:58.137Z,18.65
2024-05-09T06:11:29.884Z,19.90
2024-05-09T06:12:01.695Z,18.23
2024-05-09T06:12:33.375Z,17.98
2024-05-09T06:13:04.958Z,18.98
2024-05-09T06:13:36.449Z,19.00
2024-05-09T06:14:08.917Z,20.80
2024-05-09T06:14:41.020Z,20.13
2024-05-09T06:15:12.582Z,19.83
2024-05-09T06:15:44.220Z,19.63
2024-05-09T06:17:04.871Z,18.23
2024-05-09T06:17:36.547Z,19.45
2024-05-09T06:18:10.214Z,18.75
2024-05-09T06:19:01.471Z,19.02
2024-05-09T06:19:33.219Z,18.95
2024-05-09T06:20:09.082Z,19.80
2024-05-09T06:20:44.884Z,18.15
2024-05-09T06:21:17.531Z,20.65
2024-05-09T06:21:49.179Z,19.75
2024-05-09T06:22:20.671Z,20.30
2024-05-09T06:22:52.190Z,20.53
2024-05-09T06:23:23.698Z,20.65
2024-05-09T06:23:55.226Z,21.63
2024-05-09T06:24:26.941Z,21.27
2024-05-09T06:24:58.453Z,22.58
2024-05-09T06:25:30.022Z,21.65
2024-05-09T06:26:01.612Z,22.10
2024-05-09T06:26:33.213Z,21.30
2024-05-09T06:27:06.067Z,21.85
2024-05-09T06:27:37.638Z,20.17
2024-05-09T06:28:12.364Z,21.53
2024-05-09T06:28:43.925Z,21.25
2024-05-09T06:29:15.584Z,23.08
2024-05-09T06:29:47.136Z,23.75
2024-05-09T06:30:25.597Z,23.42
2024-05-09T06:31:03.043Z,23.55
2024-05-09T06:31:43.920Z,22.55
2024-05-09T06:32:16.002Z,23.27
2024-05-09T06:33:07.205Z,22.83
2024-05-09T06:33:39.156Z,22.70
2024-05-09T06:34:10.914Z,21.80
2024-05-09T06:34:43.117Z,24.77
2024-05-09T06:35:14.725Z,23.25
2024-05-09T06:35:46.455Z,23.20
2024-05-09T06:36:38.097Z,22.42
2024-05-09T06:37:09.647Z,22.95
2024-05-09T06:37:41.179Z,22.30
2024-05-09T06:38:12.958Z,22.17
2024-05-09T06:38:44.736Z,23.85
2024-05-09T06:39:34.813Z,22.45
2024-05-09T06:40:07.623Z,21.77
2024-05-09T06:40:43.646Z,22.20
2024-05-09T06:41:16.034Z,21.55
2024-05-09T06:41:47.561Z,23.42
2024-05-09T06:42:19.077Z,22.77
2024-05-09T06:42:50.712Z,22.67
2024-05-09T06:43:22.394Z,24.45
2024-05-09T06:43:53.911Z,22.58
2024-05-09T06:44:25.544Z,22.98
2024-05-09T06:44:57.138Z,21.13
2024-05-09T06:45:28.671Z,20.93
2024-05-09T06:46:00.167Z,22.08
2024-05-09T06:46:50.316Z,22.20
2024-05-09T06:47:21.987Z,20.58
2024-05-09T06:47:53.825Z,20.92
2024-05-09T06:48:25.572Z,19.45
2024-05-09T06:48:57.298Z,20.65
2024-05-09T06:49:30.143Z,20.15
2024-05-09T06:50:02.051Z,20.77
2024-05-09T06:50:37.601Z,19.88
2024-05-09T06:51:10.711Z,19.90
2024-05-09T06:51:42.498Z,20.17
2024-05-09T06:52:14.184Z,20.58
2024-05-09T06:52:48.839Z,19.33
2024-05-09T06:53:58.211Z,19.23
2024-05-09T06:54:30.115Z,18.15
2024-05-09T06:55:01.671Z,18.00
2024-05-09T06:55:33.200Z,17.90
2024-05-09T06:56:05.156Z,18.23
2024-05-09T06:56:37.717Z,19.20
2024-05-09T06:57:30.808Z,18.07
2024-05-09T06:58:03.970Z,18.42
2024-05-09T06:58:35.469Z,19.15
2024-05-09T06:59:07.078Z,19.10
2024-05-09T06:59:38.672Z,18.58
2024-05-09T07:00:15.629Z,18.63
2024-05-09T07:00:50.847Z,18.30
2024-05-09T07:01:22.549Z,16.92
2024-05-09T07:01:54.109Z,16.83
2024-05-09T07:02:25.687Z,16.58
2024-05-09T07:02:59.071Z,17.63
2024-05-09T07:03:31.833Z,17.33
2024-05-09T07:04:03.539Z,18.13
2024-05-09T07:04:53.893Z,17.45
2024-05-09T07:05:25.959Z,16.52
2024-05-09T07:05:57.644Z,16.75
2024-05-09T07:06:29.187Z,15.95
2024-05-09T07:07:00.659Z,16.15
2024-05-09T07:07:32.211Z,16.13
2024-05-09T07:08:04.453Z,16.05
2024-05-09T07:08:35.967Z,16.43
2024-05-09T07:09:07.456Z,16.33
2024-05-09T07:09:39.870Z,15.55
2024-05-09T07:10:21.563Z,16.30
2024-05-09T07:10:57.136Z,15.70
2024-05-09T07:11:28.759Z,16.42
2024-05-09T07:12:00.407Z,15.93
2024-05-09T07:12:32.025Z,15.82
2024-05-09T07:13:11.099Z,16.50
2024-05-09T07:13:42.655Z,15.35
2024-05-09T07:14:14.235Z,14.77
2024-05-09T07:15:04.357Z,15.05
2024-05-09T07:15:35.908Z,14.27
2024-05-09T07:16:07.455Z,15.98
2024-05-09T07:17:28.496Z,13.93
2024-05-09T07:18:00.163Z,14.90
2024-05-09T07:18:31.944Z,15.07
2024-05-09T07:19:03.732Z,15.95
2024-05-09T07:19:35.389Z,14.70
2024-05-09T07:20:09.247Z,14.87
2024-05-09T07:20:46.165Z,14.13
2024-05-09T07:21:18.014Z,14.68
2024-05-09T07:21:51.295Z,15.73
2024-05-09T07:22:25.309Z,15.00
2024-05-09T07:22:56.857Z,14.40
2024-05-09T07:23:28.474Z,14.63
2024-05-09T07:24:00.036Z,14.45
2024-05-09T07:24:50.244Z,14.85
2024-05-09T07:25:21.742Z,13.25
2024-05-09T07:25:53.277Z,13.10
2024-05-09T07:26:24.913Z,13.32
2024-05-09T07:26:56.584Z,14.35
2024-05-09T07:27:28.144Z,14.15
2024-05-09T07:27:59.731Z,15.00
2024-05-09T07:28:31.260Z,13.77
2024-05-09T07:29:02.869Z,13.95
2024-05-09T07:29:37.869Z,14.82
2024-05-09T07:30:33.444Z,16.08
2024-05-09T07:31:06.339Z,14.10
2024-05-09T07:31:56.505Z,14.47
2024-05-09T07:32:28.258Z,13.60
2024-05-09T07:33:00.510Z,14.45
2024-05-09T07:33:32.427Z,14.32
2024-05-09T07:34:04.020Z,15.95
2024-05-09T07:34:35.791Z,14.68
2024-05-09T07:35:07.387Z,13.85
2024-05-09T07:35:39.087Z,14.40
2024-05-09T07:36:10.646Z,13.65
2024-05-09T07:36:42.652Z,13.52
2024-05-09T07:37:14.177Z,13.10
2024-05-09T07:38:04.706Z,12.70
2024-05-09T07:39:25.453Z,12.38
2024-05-09T07:39:56.953Z,12.27
2024-05-09T07:40:35.069Z,13.30
2024-05-09T07:41:08.359Z,12.45
2024-05-09T07:42:28.552Z,11.90
2024-05-09T07:43:00.087Z,11.50
2024-05-09T07:43:31.633Z,13.43
2024-05-09T07:44:03.453Z,13.48
2024-05-09T07:44:35.170Z,13.07
2024-05-09T07:45:24.240Z,13.93
2024-05-09T07:46:22.999Z,13.30
2024-05-09T07:47:52.275Z,13.30
2024-05-09T07:50:34.343Z,11.70